createdAt,value
2023-05-01T00:04:51.366Z,1.38
2023-05-01T00:09:57.235Z,1.60
2023-05-01T00:15:05.953Z,1.63
2023-05-01T00:20:14.016Z,1.50
2023-05-01T00:25:21.203Z,1.57
2023-05-01T00:30:38.102Z,1.50
2023-05-01T00:35:46.395Z,1.73
2023-05-01T00:40:51.849Z,1.70
2023-05-01T00:45:59.890Z,2.10
2023-05-01T00:51:10.841Z,1.95
2023-05-01T00:56:16.581Z,2.00
2023-05-01T01:01:24.904Z,1.92
2023-05-01T01:06:38.117Z,1.83
2023-05-01T01:17:37.899Z,1.93
2023-05-01T01:22:46.562Z,2.10
2023-05-01T01:28:14.187Z,1.90
2023-05-01T01:33:54.701Z,1.90
2023-05-01T01:39:07.931Z,1.83
2023-05-01T01:44:24.545Z,2.20
2023-05-01T01:49:34.306Z,1.77
2023-05-01T01:54:43.877Z,2.10
2023-05-01T01:59:50.653Z,1.60
2023-05-01T02:05:00.051Z,1.77
2023-05-01T02:10:08.368Z,1.83
2023-05-01T02:15:14.305Z,2.25
2023-05-01T02:20:24.239Z,2.07
2023-05-01T02:25:32.807Z,1.83
2023-05-01T02:30:39.252Z,1.87
2023-05-01T02:35:51.114Z,2.07
2023-05-01T02:41:00.940Z,2.05
2023-05-01T02:46:08.127Z,2.00
2023-05-01T02:51:16.909Z,2.37
2023-05-01T02:56:22.455Z,1.52
2023-05-01T03:01:28.027Z,1.83
2023-05-01T03:06:37.034Z,2.10
2023-05-01T03:11:44.141Z,1.90
2023-05-01T03:16:49.593Z,2.30
2023-05-01T03:21:57.764Z,2.20
2023-05-01T03:27:03.225Z,2.17
2023-05-01T03:32:09.183Z,2.17
2023-05-01T03:37:17.434Z,2.10
2023-05-01T03:42:24.695Z,2.20
2023-05-01T03:47:35.880Z,1.90
2023-05-01T03:52:44.266Z,1.80
2023-05-01T03:57:50.103Z,2.40
2023-05-01T04:02:56.939Z,1.90
2023-05-01T04:08:07.409Z,1.70
2023-05-01T04:13:13.202Z,2.47
2023-05-01T04:18:18.967Z,2.80
2023-05-01T04:23:28.398Z,1.90
2023-05-01T04:28:36.942Z,2.05
2023-05-01T04:33:48.689Z,1.80
2023-05-01T04:38:56.804Z,1.80
2023-05-01T04:44:03.161Z,1.90
2023-05-01T04:49:09.661Z,2.10
2023-05-01T04:54:17.646Z,1.87
2023-05-01T04:59:25.406Z,2.10
2023-05-01T05:04:33.511Z,1.90
2023-05-01T05:09:42.158Z,1.40
2023-05-01T05:14:48.145Z,2.00
2023-05-01T05:19:56.279Z,1.53
2023-05-01T05:25:05.322Z,1.80
2023-05-01T05:30:14.862Z,1.80
2023-05-01T05:35:20.494Z,1.50
2023-05-01T05:40:29.105Z,1.93
2023-05-01T05:45:37.182Z,1.75
2023-05-01T05:50:43.486Z,1.93
2023-05-01T05:55:53.031Z,1.90
2023-05-01T06:00:58.546Z,1.85
2023-05-01T06:06:04.310Z,1.70
2023-05-01T06:11:14.542Z,1.80
2023-05-01T06:16:20.157Z,1.70
2023-05-01T06:21:25.585Z,1.80
2023-05-01T06:26:34.616Z,1.77
2023-05-01T06:31:40.136Z,1.83
2023-05-01T06:36:45.717Z,1.57
2023-05-01T06:41:55.119Z,2.07
2023-05-01T06:47:09.583Z,1.60
2023-05-01T06:52:15.016Z,1.67
2023-05-01T06:57:23.533Z,1.70
2023-05-01T07:02:38.387Z,1.90
2023-05-01T07:07:50.441Z,2.00
2023-05-01T07:13:06.564Z,1.90
2023-05-01T07:18:14.281Z,1.80
2023-05-01T07:23:20.187Z,1.90
2023-05-01T07:28:28.568Z,1.83
2023-05-01T07:51:26.018Z,1.77
2023-05-01T07:56:31.623Z,2.10
2023-05-01T08:01:39.926Z,2.03
2023-05-01T08:06:45.614Z,1.92
2023-05-01T08:11:52.940Z,1.90
2023-05-01T08:17:07.997Z,1.83
2023-05-01T08:22:14.411Z,2.05
2023-05-01T08:27:42.304Z,1.83
2023-05-01T08:32:50.941Z,2.00
2023-05-01T08:37:56.569Z,2.10
2023-05-01T08:43:04.239Z,2.10
2023-05-01T08:48:14.262Z,1.77
2023-05-01T08:53:20.233Z,1.70
2023-05-01T08:58:29.394Z,2.10
2023-05-01T09:03:39.838Z,2.20
2023-05-01T09:08:45.387Z,2.40
2023-05-01T09:13:51.420Z,2.45
2023-05-01T09:19:02.362Z,2.33
2023-05-01T09:24:12.363Z,2.00
2023-05-01T09:29:46.631Z,2.90
2023-05-01T09:34:57.611Z,2.67
2023-05-01T09:40:11.847Z,2.67
2023-05-01T09:45:18.910Z,2.53
2023-05-01T09:50:37.430Z,2.15
2023-05-01T09:55:42.840Z,2.27
2023-05-01T10:00:51.781Z,1.80
2023-05-01T10:06:02.249Z,2.20
2023-05-01T10:11:08.395Z,2.20
2023-05-01T10:16:32.624Z,2.30
2023-05-01T10:21:41.031Z,2.58
2023-05-01T10:26:46.865Z,2.67
2023-05-01T10:31:52.401Z,2.77
2023-05-01T10:37:03.870Z,2.13
2023-05-01T10:42:11.754Z,1.92
2023-05-01T10:47:47.628Z,2.70
2023-05-01T10:53:23.928Z,2.30
2023-05-01T10:58:58.294Z,2.58
2023-05-01T11:04:05.857Z,2.27
2023-05-01T11:09:44.737Z,2.07
2023-05-01T11:15:08.902Z,1.60
2023-05-01T11:20:15.929Z,1.20
2023-05-01T11:25:27.018Z,1.00
2023-05-01T11:30:40.363Z,1.45
2023-05-01T11:35:46.552Z,1.33
2023-05-01T11:40:58.295Z,1.40
2023-05-01T11:46:06.738Z,1.58
2023-05-01T11:51:16.217Z,1.70
2023-05-01T11:56:27.662Z,1.60
2023-05-01T12:01:40.404Z,1.40
2023-05-01T12:06:48.218Z,1.50
2023-05-01T12:11:58.090Z,1.30
2023-05-01T12:17:04.486Z,1.20
2023-05-01T12:22:10.438Z,1.10
2023-05-01T12:27:18.476Z,1.15
2023-05-01T12:32:33.994Z,1.13
2023-05-01T12:37:40.780Z,1.20
2023-05-01T12:42:57.816Z,1.02
2023-05-01T12:48:03.324Z,1.33
2023-05-01T12:53:09.941Z,1.47
2023-05-01T12:58:19.238Z,1.30
2023-05-01T13:03:28.110Z,2.10
2023-05-01T13:08:34.815Z,2.07
2023-05-01T13:13:44.033Z,1.80
2023-05-01T13:18:50.577Z,1.70
2023-05-01T13:23:57.590Z,1.20
2023-05-01T13:29:07.446Z,1.17
2023-05-01T13:34:13.150Z,0.90
2023-05-01T13:39:22.501Z,0.80
2023-05-01T13:44:32.350Z,1.40
2023-05-01T13:49:38.480Z,1.45
2023-05-01T13:54:44.624Z,1.48
2023-05-01T13:59:52.760Z,1.30
2023-05-01T14:05:00.884Z,1.33
2023-05-01T14:10:11.486Z,1.30
2023-05-01T14:15:46.120Z,1.20
2023-05-01T14:20:53.861Z,1.60
2023-05-01T14:26:02.270Z,1.45
2023-05-01T14:31:11.284Z,1.13
2023-05-01T14:36:17.305Z,1.20
2023-05-01T14:41:25.847Z,1.40
2023-05-01T14:46:35.749Z,1.10
2023-05-01T14:51:44.223Z,1.53
2023-05-01T14:56:50.952Z,1.25
2023-05-01T15:01:59.114Z,1.20
2023-05-01T15:07:04.842Z,1.60
2023-05-01T15:12:10.449Z,1.17
2023-05-01T15:17:18.919Z,1.27
2023-05-01T15:22:24.560Z,1.67
2023-05-01T15:27:32.413Z,1.33
2023-05-01T15:32:43.138Z,1.30
2023-05-01T15:37:49.162Z,1.13
2023-05-01T15:42:57.473Z,2.23
2023-05-01T15:48:06.543Z,2.70
2023-05-01T15:53:12.206Z,1.58
2023-05-01T15:58:22.254Z,1.40
2023-05-01T16:03:30.794Z,1.67
2023-05-01T16:08:36.616Z,1.30
2023-05-01T16:13:43.911Z,1.47
2023-05-01T16:18:58.369Z,2.00
2023-05-01T16:24:07.048Z,1.60
2023-05-01T16:29:14.069Z,1.98
2023-05-01T16:34:57.088Z,5.73
2023-05-01T16:52:24.764Z,2.30
2023-05-01T17:09:31.239Z,1.40
2023-05-01T17:55:22.580Z,1.10
2023-05-01T18:30:27.254Z,1.60
2023-05-01T18:41:45.230Z,2.25
2023-05-01T18:47:07.990Z,2.80
2023-05-01T18:52:13.447Z,3.17
2023-05-01T18:57:19.149Z,3.15
2023-05-01T19:02:27.329Z,3.10
2023-05-01T19:07:34.418Z,3.63
2023-05-01T19:13:21.468Z,3.17
2023-05-01T19:25:08.110Z,3.80
2023-05-01T19:30:18.187Z,4.10
2023-05-01T19:35:30.126Z,3.60
2023-05-01T19:41:11.834Z,4.27
2023-05-01T19:46:32.221Z,4.65
2023-05-01T19:51:38.090Z,4.30
2023-05-01T19:56:49.416Z,4.60
2023-05-01T20:01:55.284Z,3.90
2023-05-01T20:07:02.902Z,4.03
2023-05-01T20:12:21.169Z,4.38
2023-05-01T20:17:26.896Z,4.50
2023-05-01T20:22:32.404Z,4.43
2023-05-01T20:27:40.948Z,4.68
2023-05-01T20:32:46.557Z,5.07
2023-05-01T20:43:34.860Z,4.65
2023-05-01T21:07:13.307Z,5.50
2023-05-01T21:12:27.100Z,4.95
2023-05-01T21:23:15.956Z,6.30
2023-05-01T21:28:21.499Z,5.77
2023-05-01T21:33:28.676Z,6.65
2023-05-01T21:38:37.751Z,7.43
2023-05-01T21:43:43.213Z,7.77
2023-05-01T21:48:52.167Z,7.05
2023-05-01T21:54:02.831Z,7.80
2023-05-01T21:59:08.500Z,7.47
2023-05-01T22:04:19.989Z,7.38
2023-05-01T22:09:28.482Z,8.40
2023-05-01T22:19:45.494Z,7.00
2023-05-01T22:24:56.682Z,7.60
2023-05-01T22:30:02.589Z,7.63
2023-05-01T22:35:10.328Z,8.27
2023-05-01T22:40:18.508Z,7.40
2023-05-01T22:45:24.072Z,7.17
2023-05-01T22:50:29.504Z,7.28
2023-05-01T22:55:38.112Z,7.60
2023-05-01T23:00:43.753Z,7.57
2023-05-01T23:05:49.204Z,7.57
2023-05-01T23:10:57.225Z,8.68
2023-05-01T23:16:02.802Z,8.60
2023-05-01T23:21:08.279Z,8.10
2023-05-01T23:26:26.760Z,9.50
2023-05-01T23:31:32.221Z,10.07
2023-05-01T23:36:37.652Z,9.93
2023-05-01T23:41:47.356Z,10.82
2023-05-01T23:46:52.836Z,10.80
2023-05-01T23:51:58.738Z,10.20
2023-05-01T23:57:06.935Z,10.30
